sensor_id;sensor_type;location;lat;lon;timestamp;temperature;humidity
612;DHT22;293;53.888;11.464;2022-10-03T00:02:01;11.80;99.90
612;DHT22;293;53.888;11.464;2022-10-03T00:04:45;11.80;99.90
612;DHT22;293;53.888;11.464;2022-10-03T00:07:24;11.80;99.90
612;DHT22;293;53.888;11.464;2022-10-03T00:10:05;11.80;99.90
612;DHT22;293;53.888;11.464;2022-10-03T00:12:50;11.90;99.90
612;DHT22;293;53.888;11.464;2022-10-03T00:15:23;11.80;99.90
612;DHT22;293;53.888;11.464;2022-10-03T00:17:59;11.90;99.90
612;DHT22;293;53.888;11.464;2022-10-03T00:20:43;11.90;99.90
612;DHT22;293;53.888;11.464;2022-10-03T00:23:17;12.00;99.90
612;DHT22;293;53.888;11.464;2022-10-03T00:25:51;11.90;99.90
612;DHT22;293;53.888;11.464;2022-10-03T00:28:38;12.00;99.90
612;DHT22;293;53.888;11.464;2022-10-03T00:31:12;12.00;99.90
612;DHT22;293;53.888;11.464;2022-10-03T00:33:54;12.00;99.90
612;DHT22;293;53.888;11.464;2022-10-03T00:36:33;12.00;99.90
612;DHT22;293;53.888;11.464;2022-10-03T00:39:17;11.90;99.90
612;DHT22;293;53.888;11.464;2022-10-03T00:48:32;12.10;99.90
612;DHT22;293;53.888;11.464;2022-10-03T00:51:21;12.10;99.90
612;DHT22;293;53.888;11.464;2022-10-03T00:54:03;12.10;99.90
612;DHT22;293;53.888;11.464;2022-10-03T00:56:44;12.20;99.90
612;DHT22;293;53.888;11.464;2022-10-03T00:59:27;12.10;99.90
612;DHT22;293;53.888;11.464;2022-10-03T01:02:18;12.10;99.90
612;DHT22;293;53.888;11.464;2022-10-03T01:04:57;12.10;99.90
612;DHT22;293;53.888;11.464;2022-10-03T01:10:22;12.00;99.90
612;DHT22;293;53.888;11.464;2022-10-03T01:13:05;11.90;99.90
612;DHT22;293;53.888;11.464;2022-10-03T01:15:42;11.90;99.90
612;DHT22;293;53.888;11.464;2022-10-03T01:18:25;11.90;99.90
612;DHT22;293;53.888;11.464;2022-10-03T01:21:03;12.00;99.90
612;DHT22;293;53.888;11.464;2022-10-03T01:23:57;12.00;99.90
612;DHT22;293;53.888;11.464;2022-10-03T01:26:54;11.90;99.90
612;DHT22;293;53.888;11.464;2022-10-03T01:29:32;11.90;99.90
612;DHT22;293;53.888;11.464;2022-10-03T01:32:22;11.90;99.90
612;DHT22;293;53.888;11.464;2022-10-03T01:34:59;11.80;99.90
612;DHT22;293;53.888;11.464;2022-10-03T01:37:32;11.80;99.90
612;DHT22;293;53.888;11.464;2022-10-03T01:40:10;11.80;99.90
612;DHT22;293;53.888;11.464;2022-10-03T01:42:44;11.80;99.90
612;DHT22;293;53.888;11.464;2022-10-03T01:45:26;11.80;99.90
612;DHT22;293;53.888;11.464;2022-10-03T01:47:59;11.80;99.90
612;DHT22;293;53.888;11.464;2022-10-03T01:50:31;11.70;99.90
612;DHT22;293;53.888;11.464;2022-10-03T01:53:05;11.70;99.90
612;DHT22;293;53.888;11.464;2022-10-03T01:55:43;11.70;99.90
612;DHT22;293;53.888;11.464;2022-10-03T01:58:12;11.80;99.90
612;DHT22;293;53.888;11.464;2022-10-03T02:00:52;11.80;99.90
612;DHT22;293;53.888;11.464;2022-10-03T02:03:26;11.80;99.90
612;DHT22;293;53.888;11.464;2022-10-03T02:06:00;11.80;99.90
612;DHT22;293;53.888;11.464;2022-10-03T02:08:40;11.70;99.90
612;DHT22;293;53.888;11.464;2022-10-03T02:11:27;11.80;99.90
612;DHT22;293;53.888;11.464;2022-10-03T02:13:59;11.80;99.90
612;DHT22;293;53.888;11.464;2022-10-03T02:16:38;11.90;99.90
612;DHT22;293;53.888;11.464;2022-10-03T02:19:16;11.90;99.90
612;DHT22;293;53.888;11.464;2022-10-03T02:21:48;11.90;99.90
612;DHT22;293;53.888;11.464;2022-10-03T02:24:37;11.90;99.90
612;DHT22;293;53.888;11.464;2022-10-03T02:27:23;12.00;99.90
612;DHT22;293;53.888;11.464;2022-10-03T02:30:12;12.00;99.90
612;DHT22;293;53.888;11.464;2022-10-03T02:33:22;12.00;99.90
612;DHT22;293;53.888;11.464;2022-10-03T02:36:01;12.00;99.90
612;DHT22;293;53.888;11.464;2022-10-03T02:38:56;12.00;99.90
612;DHT22;293;53.888;11.464;2022-10-03T02:41:45;12.00;99.90
612;DHT22;293;53.888;11.464;2022-10-03T02:44:54;12.00;99.90
612;DHT22;293;53.888;11.464;2022-10-03T02:47:47;12.10;99.90
612;DHT22;293;53.888;11.464;2022-10-03T02:50:53;12.10;99.90
612;DHT22;293;53.888;11.464;2022-10-03T02:53:52;12.10;99.90
612;DHT22;293;53.888;11.464;2022-10-03T03:00:09;12.10;99.90
612;DHT22;293;53.888;11.464;2022-10-03T03:03:04;12.00;99.90
612;DHT22;293;53.888;11.464;2022-10-03T03:06:12;12.00;99.90
612;DHT22;293;53.888;11.464;2022-10-03T03:09:00;11.90;99.90
612;DHT22;293;53.888;11.464;2022-10-03T03:15:05;11.80;99.90
612;DHT22;293;53.888;11.464;2022-10-03T03:17:42;11.80;99.90
612;DHT22;293;53.888;11.464;2022-10-03T03:20:27;11.80;99.90
612;DHT22;293;53.888;11.464;2022-10-03T03:23:15;11.80;99.90
612;DHT22;293;53.888;11.464;2022-10-03T03:26:07;11.80;99.90
612;DHT22;293;53.888;11.464;2022-10-03T03:28:45;11.70;99.90
612;DHT22;293;53.888;11.464;2022-10-03T03:31:24;11.70;99.90
612;DHT22;293;53.888;11.464;2022-10-03T03:34:01;11.60;99.90
612;DHT22;293;53.888;11.464;2022-10-03T03:36:36;11.70;99.90
612;DHT22;293;53.888;11.464;2022-10-03T03:39:16;11.60;99.90
612;DHT22;293;53.888;11.464;2022-10-03T03:41:59;11.70;99.90
612;DHT22;293;53.888;11.464;2022-10-03T03:44:49;11.60;99.90
612;DHT22;293;53.888;11.464;2022-10-03T03:47:40;11.60;99.90
612;DHT22;293;53.888;11.464;2022-10-03T03:50:27;11.60;99.90
612;DHT22;293;53.888;11.464;2022-10-03T03:53:12;11.60;99.90
612;DHT22;293;53.888;11.464;2022-10-03T03:56:12;11.60;99.90
612;DHT22;293;53.888;11.464;2022-10-03T03:58:48;11.60;99.90
612;DHT22;293;53.888;11.464;2022-10-03T04:01:35;11.50;99.90
612;DHT22;293;53.888;11.464;2022-10-03T04:04:15;11.50;99.90
612;DHT22;293;53.888;11.464;2022-10-03T04:06:50;11.40;99.90
612;DHT22;293;53.888;11.464;2022-10-03T04:12:36;11.40;99.90
612;DHT22;293;53.888;11.464;2022-10-03T04:15:20;11.40;99.90
612;DHT22;293;53.888;11.464;2022-10-03T04:17:59;11.30;99.90
612;DHT22;293;53.888;11.464;2022-10-03T04:21:05;11.30;99.90
612;DHT22;293;53.888;11.464;2022-10-03T04:23:51;11.40;99.90
612;DHT22;293;53.888;11.464;2022-10-03T04:26:38;11.40;99.90
612;DHT22;293;53.888;11.464;2022-10-03T04:29:28;11.40;99.90
612;DHT22;293;53.888;11.464;2022-10-03T04:32:07;11.50;99.90
612;DHT22;293;53.888;11.464;2022-10-03T04:34:49;11.40;99.90
612;DHT22;293;53.888;11.464;2022-10-03T04:37:27;11.40;99.90
612;DHT22;293;53.888;11.464;2022-10-03T04:40:15;11.40;99.90
612;DHT22;293;53.888;11.464;2022-10-03T04:42:51;11.40;99.90
612;DHT22;293;53.888;11.464;2022-10-03T04:45:37;11.40;99.90
612;DHT22;293;53.888;11.464;2022-10-03T04:48:13;11.40;99.90
612;DHT22;293;53.888;11.464;2022-10-03T04:50:46;11.40;99.90
612;DHT22;293;53.888;11.464;2022-10-03T04:53:22;11.40;99.90
612;DHT22;293;53.888;11.464;2022-10-03T04:55:55;11.30;99.90
612;DHT22;293;53.888;11.464;2022-10-03T04:58:33;11.30;99.90
612;DHT22;293;53.888;11.464;2022-10-03T05:01:11;11.30;99.90
612;DHT22;293;53.888;11.464;2022-10-03T05:03:45;11.30;99.90
612;DHT22;293;53.888;11.464;2022-10-03T05:06:34;11.20;99.90
612;DHT22;293;53.888;11.464;2022-10-03T05:09:15;11.30;99.90
612;DHT22;293;53.888;11.464;2022-10-03T05:11:53;11.30;99.90
612;DHT22;293;53.888;11.464;2022-10-03T05:14:27;11.20;99.90
612;DHT22;293;53.888;11.464;2022-10-03T05:17:05;11.20;99.90
612;DHT22;293;53.888;11.464;2022-10-03T05:19:43;11.20;99.90
612;DHT22;293;53.888;11.464;2022-10-03T05:22:20;11.20;99.90
612;DHT22;293;53.888;11.464;2022-10-03T05:24:56;11.20;99.90
612;DHT22;293;53.888;11.464;2022-10-03T05:27:29;11.30;99.90
612;DHT22;293;53.888;11.464;2022-10-03T05:30:02;11.30;99.90
612;DHT22;293;53.888;11.464;2022-10-03T05:32:39;11.30;99.90
612;DHT22;293;53.888;11.464;2022-10-03T05:35:23;11.30;99.90
612;DHT22;293;53.888;11.464;2022-10-03T05:38:16;11.30;99.90
612;DHT22;293;53.888;11.464;2022-10-03T05:40:58;11.40;99.90
612;DHT22;293;53.888;11.464;2022-10-03T05:43:35;11.40;99.90
612;DHT22;293;53.888;11.464;2022-10-03T05:46:18;11.40;99.90
612;DHT22;293;53.888;11.464;2022-10-03T05:48:50;11.40;99.90
612;DHT22;293;53.888;11.464;2022-10-03T05:51:43;11.40;99.90
612;DHT22;293;53.888;11.464;2022-10-03T05:54:49;11.40;99.90
612;DHT22;293;53.888;11.464;2022-10-03T06:00:19;11.50;99.90
612;DHT22;293;53.888;11.464;2022-10-03T06:02:54;11.50;99.90
612;DHT22;293;53.888;11.464;2022-10-03T06:08:43;11.60;99.90
612;DHT22;293;53.888;11.464;2022-10-03T06:11:29;11.70;99.90
612;DHT22;293;53.888;11.464;2022-10-03T06:14:19;11.70;99.90
612;DHT22;293;53.888;11.464;2022-10-03T06:16:58;11.80;99.90
612;DHT22;293;53.888;11.464;2022-10-03T06:19:39;11.90;99.90
612;DHT22;293;53.888;11.464;2022-10-03T06:22:41;12.00;99.90
612;DHT22;293;53.888;11.464;2022-10-03T06:34:33;12.30;99.90
612;DHT22;293;53.888;11.464;2022-10-03T06:37:23;12.40;99.90
612;DHT22;293;53.888;11.464;2022-10-03T06:43:43;12.50;99.90
612;DHT22;293;53.888;11.464;2022-10-03T06:46:51;12.70;99.90
612;DHT22;293;53.888;11.464;2022-10-03T06:59:14;13.00;99.90
612;DHT22;293;53.888;11.464;2022-10-03T07:08:12;13.30;99.90
612;DHT22;293;53.888;11.464;2022-10-03T07:10:54;13.40;99.90
612;DHT22;293;53.888;11.464;2022-10-03T07:14:02;13.60;99.90
612;DHT22;293;53.888;11.464;2022-10-03T07:16:56;13.70;99.90
612;DHT22;293;53.888;11.464;2022-10-03T07:22:43;13.90;99.90
612;DHT22;293;53.888;11.464;2022-10-03T07:25:39;13.90;99.90
612;DHT22;293;53.888;11.464;2022-10-03T07:28:39;14.00;99.90
612;DHT22;293;53.888;11.464;2022-10-03T07:31:16;14.00;99.90
612;DHT22;293;53.888;11.464;2022-10-03T07:34:13;14.10;99.90
612;DHT22;293;53.888;11.464;2022-10-03T07:37:03;14.10;99.90
612;DHT22;293;53.888;11.464;2022-10-03T07:40:20;14.10;99.90
612;DHT22;293;53.888;11.464;2022-10-03T07:49:04;14.10;99.90
612;DHT22;293;53.888;11.464;2022-10-03T07:51:41;14.20;99.90
612;DHT22;293;53.888;11.464;2022-10-03T07:54:36;14.20;99.90
612;DHT22;293;53.888;11.464;2022-10-03T07:57:22;14.30;99.90
612;DHT22;293;53.888;11.464;2022-10-03T08:00:18;14.20;99.90
612;DHT22;293;53.888;11.464;2022-10-03T08:03:19;14.30;99.90
612;DHT22;293;53.888;11.464;2022-10-03T08:06:13;14.30;99.90
612;DHT22;293;53.888;11.464;2022-10-03T08:09:09;14.40;99.90
612;DHT22;293;53.888;11.464;2022-10-03T08:14:55;14.80;99.90
612;DHT22;293;53.888;11.464;2022-10-03T08:20:48;14.70;99.90
612;DHT22;293;53.888;11.464;2022-10-03T08:23:36;14.70;99.90
612;DHT22;293;53.888;11.464;2022-10-03T08:26:14;14.70;99.90
612;DHT22;293;53.888;11.464;2022-10-03T08:28:57;14.70;99.90
612;DHT22;293;53.888;11.464;2022-10-03T08:31:56;14.70;99.90
612;DHT22;293;53.888;11.464;2022-10-03T08:34:50;14.70;99.90
612;DHT22;293;53.888;11.464;2022-10-03T08:37:49;14.60;99.90
612;DHT22;293;53.888;11.464;2022-10-03T08:40:58;14.60;99.90
612;DHT22;293;53.888;11.464;2022-10-03T08:43:59;14.60;99.90
612;DHT22;293;53.888;11.464;2022-10-03T08:46:41;14.60;99.90
612;DHT22;293;53.888;11.464;2022-10-03T08:49:30;14.60;99.90
612;DHT22;293;53.888;11.464;2022-10-03T08:52:12;14.60;99.90
612;DHT22;293;53.888;11.464;2022-10-03T08:55:11;14.60;99.90
612;DHT22;293;53.888;11.464;2022-10-03T09:01:25;14.50;99.90
612;DHT22;293;53.888;11.464;2022-10-03T09:07:09;14.50;99.90
612;DHT22;293;53.888;11.464;2022-10-03T09:13:16;14.70;99.90
612;DHT22;293;53.888;11.464;2022-10-03T09:19:00;14.80;99.90
612;DHT22;293;53.888;11.464;2022-10-03T09:21:55;14.80;99.90
612;DHT22;293;53.888;11.464;2022-10-03T09:27:38;15.10;99.90
612;DHT22;293;53.888;11.464;2022-10-03T09:30:19;15.20;99.90
612;DHT22;293;53.888;11.464;2022-10-03T09:36:24;15.60;99.90
612;DHT22;293;53.888;11.464;2022-10-03T09:39:02;15.80;99.90
612;DHT22;293;53.888;11.464;2022-10-03T09:41:47;16.00;99.90
612;DHT22;293;53.888;11.464;2022-10-03T09:44:44;16.00;99.90
612;DHT22;293;53.888;11.464;2022-10-03T09:47:41;16.10;99.90
612;DHT22;293;53.888;11.464;2022-10-03T09:50:48;16.20;99.90
612;DHT22;293;53.888;11.464;2022-10-03T09:59:39;16.40;99.90
612;DHT22;293;53.888;11.464;2022-10-03T10:05:29;16.50;99.90
612;DHT22;293;53.888;11.464;2022-10-03T10:08:24;16.30;99.90
612;DHT22;293;53.888;11.464;2022-10-03T10:11:07;16.20;99.90
612;DHT22;293;53.888;11.464;2022-10-03T10:14:07;16.10;99.90
612;DHT22;293;53.888;11.464;2022-10-03T10:16:56;16.10;99.90
612;DHT22;293;53.888;11.464;2022-10-03T10:19:44;16.00;99.90
612;DHT22;293;53.888;11.464;2022-10-03T10:22:34;16.00;99.90
612;DHT22;293;53.888;11.464;2022-10-03T10:25:28;15.90;99.90
612;DHT22;293;53.888;11.464;2022-10-03T10:28:23;15.90;99.90
612;DHT22;293;53.888;11.464;2022-10-03T10:31:09;15.90;99.90
612;DHT22;293;53.888;11.464;2022-10-03T10:34:22;16.00;99.90
612;DHT22;293;53.888;11.464;2022-10-03T10:37:25;15.90;99.90
612;DHT22;293;53.888;11.464;2022-10-03T10:43:29;15.80;99.90
612;DHT22;293;53.888;11.464;2022-10-03T10:49:42;15.80;99.90
612;DHT22;293;53.888;11.464;2022-10-03T11:01:53;15.90;99.90
612;DHT22;293;53.888;11.464;2022-10-03T11:08:04;15.80;99.90
612;DHT22;293;53.888;11.464;2022-10-03T11:10:52;15.80;99.90
612;DHT22;293;53.888;11.464;2022-10-03T11:13:55;15.80;99.90
612;DHT22;293;53.888;11.464;2022-10-03T11:16:59;15.80;99.90
612;DHT22;293;53.888;11.464;2022-10-03T11:26:09;16.00;99.90
612;DHT22;293;53.888;11.464;2022-10-03T11:29:10;15.90;99.90
612;DHT22;293;53.888;11.464;2022-10-03T11:32:17;15.90;99.90
612;DHT22;293;53.888;11.464;2022-10-03T11:35:25;15.90;99.90
612;DHT22;293;53.888;11.464;2022-10-03T11:38:02;15.90;99.90
612;DHT22;293;53.888;11.464;2022-10-03T11:40:39;15.90;99.90
612;DHT22;293;53.888;11.464;2022-10-03T11:43:37;15.90;99.90
612;DHT22;293;53.888;11.464;2022-10-03T11:46:20;15.90;99.90
612;DHT22;293;53.888;11.464;2022-10-03T11:48:54;15.90;99.90
612;DHT22;293;53.888;11.464;2022-10-03T11:51:38;16.00;99.90
612;DHT22;293;53.888;11.464;2022-10-03T11:54:14;16.30;99.90
612;DHT22;293;53.888;11.464;2022-10-03T11:56:46;16.40;99.90
612;DHT22;293;53.888;11.464;2022-10-03T11:59:33;16.50;99.90
612;DHT22;293;53.888;11.464;2022-10-03T12:02:18;16.60;99.90
612;DHT22;293;53.888;11.464;2022-10-03T12:04:52;16.80;99.90
612;DHT22;293;53.888;11.464;2022-10-03T12:07:36;17.00;99.70
612;DHT22;293;53.888;11.464;2022-10-03T12:10:34;17.20;99.80
612;DHT22;293;53.888;11.464;2022-10-03T12:13:07;17.40;99.60
612;DHT22;293;53.888;11.464;2022-10-03T12:15:39;17.60;99.40
612;DHT22;293;53.888;11.464;2022-10-03T12:18:12;17.80;98.80
612;DHT22;293;53.888;11.464;2022-10-03T12:21:00;17.80;98.30
612;DHT22;293;53.888;11.464;2022-10-03T12:23:49;17.70;98.20
612;DHT22;293;53.888;11.464;2022-10-03T12:26:26;17.60;98.50
612;DHT22;293;53.888;11.464;2022-10-03T12:28:56;17.40;98.60
612;DHT22;293;53.888;11.464;2022-10-03T12:31:28;17.30;98.90
612;DHT22;293;53.888;11.464;2022-10-03T12:34:09;17.20;99.20
612;DHT22;293;53.888;11.464;2022-10-03T12:36:49;17.10;99.20
612;DHT22;293;53.888;11.464;2022-10-03T12:39:27;17.10;99.20
612;DHT22;293;53.888;11.464;2022-10-03T12:42:16;17.10;99.30
612;DHT22;293;53.888;11.464;2022-10-03T12:44:50;17.00;99.50
612;DHT22;293;53.888;11.464;2022-10-03T12:47:29;17.00;99.50
612;DHT22;293;53.888;11.464;2022-10-03T12:50:04;17.00;99.90
612;DHT22;293;53.888;11.464;2022-10-03T12:52:39;17.00;99.70
612;DHT22;293;53.888;11.464;2022-10-03T12:55:22;17.00;99.50
612;DHT22;293;53.888;11.464;2022-10-03T12:57:53;17.10;99.40
612;DHT22;293;53.888;11.464;2022-10-03T13:00:26;17.10;99.40
612;DHT22;293;53.888;11.464;2022-10-03T13:06:16;17.30;99.40
612;DHT22;293;53.888;11.464;2022-10-03T13:08:57;17.50;99.50
612;DHT22;293;53.888;11.464;2022-10-03T13:11:34;17.70;99.40
612;DHT22;293;53.888;11.464;2022-10-03T13:14:20;17.90;99.10
612;DHT22;293;53.888;11.464;2022-10-03T13:16:56;18.10;98.80
612;DHT22;293;53.888;11.464;2022-10-03T13:19:29;18.00;98.60
612;DHT22;293;53.888;11.464;2022-10-03T13:22:08;18.00;98.60
612;DHT22;293;53.888;11.464;2022-10-03T13:24:49;17.90;98.90
612;DHT22;293;53.888;11.464;2022-10-03T13:27:29;17.80;99.30
612;DHT22;293;53.888;11.464;2022-10-03T13:30:02;17.60;99.90
612;DHT22;293;53.888;11.464;2022-10-03T13:32:33;17.60;99.90
612;DHT22;293;53.888;11.464;2022-10-03T13:35:16;17.50;99.90
612;DHT22;293;53.888;11.464;2022-10-03T13:38:16;17.40;99.90
612;DHT22;293;53.888;11.464;2022-10-03T13:40:50;17.30;99.90
612;DHT22;293;53.888;11.464;2022-10-03T13:43:26;17.20;99.90
612;DHT22;293;53.888;11.464;2022-10-03T13:46:10;17.30;99.90
612;DHT22;293;53.888;11.464;2022-10-03T13:48:39;17.30;99.90
612;DHT22;293;53.888;11.464;2022-10-03T13:51:18;17.30;99.90
612;DHT22;293;53.888;11.464;2022-10-03T13:53:56;17.30;99.90
612;DHT22;293;53.888;11.464;2022-10-03T13:56:55;17.40;99.90
612;DHT22;293;53.888;11.464;2022-10-03T13:59:37;17.40;99.90
612;DHT22;293;53.888;11.464;2022-10-03T14:02:31;17.40;99.90
612;DHT22;293;53.888;11.464;2022-10-03T14:08:26;17.50;99.90
612;DHT22;293;53.888;11.464;2022-10-03T14:11:20;17.60;99.90
612;DHT22;293;53.888;11.464;2022-10-03T14:14:06;17.70;99.90
612;DHT22;293;53.888;11.464;2022-10-03T14:16:39;17.70;99.90
612;DHT22;293;53.888;11.464;2022-10-03T14:19:12;17.70;99.90
612;DHT22;293;53.888;11.464;2022-10-03T14:21:59;17.70;99.90
612;DHT22;293;53.888;11.464;2022-10-03T14:24:48;17.70;99.90
612;DHT22;293;53.888;11.464;2022-10-03T14:27:37;17.80;99.90
612;DHT22;293;53.888;11.464;2022-10-03T14:30:11;17.80;99.90
612;DHT22;293;53.888;11.464;2022-10-03T14:32:58;17.80;99.90
612;DHT22;293;53.888;11.464;2022-10-03T14:35:35;17.90;99.90
612;DHT22;293;53.888;11.464;2022-10-03T14:38:22;18.00;99.90
612;DHT22;293;53.888;11.464;2022-10-03T14:41:18;18.00;99.70
612;DHT22;293;53.888;11.464;2022-10-03T14:43:49;18.00;99.60
612;DHT22;293;53.888;11.464;2022-10-03T14:46:20;18.00;99.70
612;DHT22;293;53.888;11.464;2022-10-03T14:48:51;18.00;99.90
612;DHT22;293;53.888;11.464;2022-10-03T14:51:25;18.00;99.90
612;DHT22;293;53.888;11.464;2022-10-03T14:53:56;18.00;99.90
612;DHT22;293;53.888;11.464;2022-10-03T14:56:27;17.90;99.90
612;DHT22;293;53.888;11.464;2022-10-03T14:58:58;17.80;99.90
612;DHT22;293;53.888;11.464;2022-10-03T15:01:28;17.70;99.90
612;DHT22;293;53.888;11.464;2022-10-03T15:03:59;17.60;99.90
612;DHT22;293;53.888;11.464;2022-10-03T15:06:49;17.50;99.90
612;DHT22;293;53.888;11.464;2022-10-03T15:09:22;17.50;99.90
612;DHT22;293;53.888;11.464;2022-10-03T15:11:53;17.50;99.90
612;DHT22;293;53.888;11.464;2022-10-03T15:14:26;17.30;99.90
612;DHT22;293;53.888;11.464;2022-10-03T15:16:56;17.20;99.90
612;DHT22;293;53.888;11.464;2022-10-03T15:19:29;17.10;99.90
612;DHT22;293;53.888;11.464;2022-10-03T15:22:11;17.10;99.90
612;DHT22;293;53.888;11.464;2022-10-03T15:24:42;17.00;99.90
612;DHT22;293;53.888;11.464;2022-10-03T15:27:15;17.00;99.90
612;DHT22;293;53.888;11.464;2022-10-03T15:29:46;17.00;99.90
612;DHT22;293;53.888;11.464;2022-10-03T15:32:21;17.00;99.90
612;DHT22;293;53.888;11.464;2022-10-03T15:34:56;17.00;99.90
612;DHT22;293;53.888;11.464;2022-10-03T15:37:28;17.00;99.90
612;DHT22;293;53.888;11.464;2022-10-03T15:40:03;17.00;99.90
612;DHT22;293;53.888;11.464;2022-10-03T15:42:32;17.00;99.90
612;DHT22;293;53.888;11.464;2022-10-03T15:45:17;17.00;99.90
612;DHT22;293;53.888;11.464;2022-10-03T15:47:46;16.90;99.90
612;DHT22;293;53.888;11.464;2022-10-03T15:50:18;16.80;99.90
612;DHT22;293;53.888;11.464;2022-10-03T15:52:49;16.90;99.90
612;DHT22;293;53.888;11.464;2022-10-03T15:55:19;16.90;99.90
612;DHT22;293;53.888;11.464;2022-10-03T15:57:50;16.90;99.90
612;DHT22;293;53.888;11.464;2022-10-03T16:00:26;16.90;99.90
612;DHT22;293;53.888;11.464;2022-10-03T16:03:03;16.90;99.90
612;DHT22;293;53.888;11.464;2022-10-03T16:05:35;16.90;99.90
612;DHT22;293;53.888;11.464;2022-10-03T16:08:05;16.90;99.90
612;DHT22;293;53.888;11.464;2022-10-03T16:10:37;16.80;99.90
612;DHT22;293;53.888;11.464;2022-10-03T16:13:13;16.70;99.90
612;DHT22;293;53.888;11.464;2022-10-03T16:15:56;16.60;99.90
612;DHT22;293;53.888;11.464;2022-10-03T16:18:52;16.60;99.90
612;DHT22;293;53.888;11.464;2022-10-03T16:21:40;16.60;99.90
612;DHT22;293;53.888;11.464;2022-10-03T16:24:17;16.60;99.90
612;DHT22;293;53.888;11.464;2022-10-03T16:26:50;16.60;99.90
612;DHT22;293;53.888;11.464;2022-10-03T16:29:21;16.50;99.90
612;DHT22;293;53.888;11.464;2022-10-03T16:31:53;16.50;99.90
612;DHT22;293;53.888;11.464;2022-10-03T16:34:24;16.50;99.90
612;DHT22;293;53.888;11.464;2022-10-03T16:36:52;16.40;99.90
612;DHT22;293;53.888;11.464;2022-10-03T16:39:23;16.40;99.90
612;DHT22;293;53.888;11.464;2022-10-03T16:41:52;16.30;99.90
612;DHT22;293;53.888;11.464;2022-10-03T16:44:23;16.30;99.90
612;DHT22;293;53.888;11.464;2022-10-03T16:46:53;16.30;99.90
612;DHT22;293;53.888;11.464;2022-10-03T16:49:37;16.30;99.90
612;DHT22;293;53.888;11.464;2022-10-03T16:52:28;16.30;99.90
612;DHT22;293;53.888;11.464;2022-10-03T16:54:58;16.30;99.90
612;DHT22;293;53.888;11.464;2022-10-03T16:57:31;16.20;99.90
612;DHT22;293;53.888;11.464;2022-10-03T17:00:03;16.20;99.90
612;DHT22;293;53.888;11.464;2022-10-03T17:02:35;16.20;99.90
612;DHT22;293;53.888;11.464;2022-10-03T17:05:07;16.20;99.90
612;DHT22;293;53.888;11.464;2022-10-03T17:07:38;16.20;99.90
612;DHT22;293;53.888;11.464;2022-10-03T17:10:20;16.10;99.90
612;DHT22;293;53.888;11.464;2022-10-03T17:12:50;16.00;99.90
612;DHT22;293;53.888;11.464;2022-10-03T17:15:20;15.90;99.90
612;DHT22;293;53.888;11.464;2022-10-03T17:17:51;15.90;99.90
612;DHT22;293;53.888;11.464;2022-10-03T17:20:32;15.90;99.90
612;DHT22;293;53.888;11.464;2022-10-03T17:23:03;15.80;99.90
612;DHT22;293;53.888;11.464;2022-10-03T17:25:36;15.80;99.90
612;DHT22;293;53.888;11.464;2022-10-03T17:28:13;15.80;99.90
612;DHT22;293;53.888;11.464;2022-10-03T17:30:45;15.70;99.90
612;DHT22;293;53.888;11.464;2022-10-03T17:33:17;15.70;99.90
612;DHT22;293;53.888;11.464;2022-10-03T17:35:56;15.70;99.90
612;DHT22;293;53.888;11.464;2022-10-03T17:38:29;15.70;99.90
612;DHT22;293;53.888;11.464;2022-10-03T17:41:11;15.70;99.90
612;DHT22;293;53.888;11.464;2022-10-03T17:43:42;15.70;99.90
612;DHT22;293;53.888;11.464;2022-10-03T17:46:17;15.70;99.90
612;DHT22;293;53.888;11.464;2022-10-03T17:48:52;15.70;99.90
612;DHT22;293;53.888;11.464;2022-10-03T17:51:33;15.60;99.90
612;DHT22;293;53.888;11.464;2022-10-03T17:54:04;15.60;99.90
612;DHT22;293;53.888;11.464;2022-10-03T17:56:33;15.50;99.90
612;DHT22;293;53.888;11.464;2022-10-03T17:59:04;15.40;99.90
612;DHT22;293;53.888;11.464;2022-10-03T18:01:35;15.40;99.90
612;DHT22;293;53.888;11.464;2022-10-03T18:04:06;15.40;99.90
612;DHT22;293;53.888;11.464;2022-10-03T18:06:44;15.30;99.90
612;DHT22;293;53.888;11.464;2022-10-03T18:09:27;15.10;99.90
612;DHT22;293;53.888;11.464;2022-10-03T18:12:04;15.00;99.90
612;DHT22;293;53.888;11.464;2022-10-03T18:14:43;14.90;99.90
612;DHT22;293;53.888;11.464;2022-10-03T18:17:15;14.80;99.90
612;DHT22;293;53.888;11.464;2022-10-03T18:19:55;14.70;99.90
612;DHT22;293;53.888;11.464;2022-10-03T18:22:32;14.70;99.90
612;DHT22;293;53.888;11.464;2022-10-03T18:25:08;14.70;99.90
612;DHT22;293;53.888;11.464;2022-10-03T18:28:19;14.70;99.90
612;DHT22;293;53.888;11.464;2022-10-03T18:30:50;14.70;99.90
612;DHT22;293;53.888;11.464;2022-10-03T18:33:22;14.70;99.90
612;DHT22;293;53.888;11.464;2022-10-03T18:35:50;14.70;99.90
612;DHT22;293;53.888;11.464;2022-10-03T18:38:20;14.70;99.90
612;DHT22;293;53.888;11.464;2022-10-03T18:40:50;14.60;99.90
612;DHT22;293;53.888;11.464;2022-10-03T18:43:27;14.60;99.90
612;DHT22;293;53.888;11.464;2022-10-03T18:46:00;14.70;99.90
612;DHT22;293;53.888;11.464;2022-10-03T18:48:33;14.60;99.90
612;DHT22;293;53.888;11.464;2022-10-03T18:51:09;14.60;99.90
612;DHT22;293;53.888;11.464;2022-10-03T18:53:44;14.50;99.90
612;DHT22;293;53.888;11.464;2022-10-03T18:56:15;14.50;99.90
612;DHT22;293;53.888;11.464;2022-10-03T18:58:47;14.40;99.90
612;DHT22;293;53.888;11.464;2022-10-03T19:01:18;14.40;99.90
612;DHT22;293;53.888;11.464;2022-10-03T19:03:54;14.40;99.90
612;DHT22;293;53.888;11.464;2022-10-03T19:06:26;14.50;99.90
612;DHT22;293;53.888;11.464;2022-10-03T19:08:57;14.50;99.90
612;DHT22;293;53.888;11.464;2022-10-03T19:11:28;14.50;99.90
612;DHT22;293;53.888;11.464;2022-10-03T19:13:59;14.40;99.90
612;DHT22;293;53.888;11.464;2022-10-03T19:16:54;14.40;99.90
612;DHT22;293;53.888;11.464;2022-10-03T19:19:27;14.40;99.90
612;DHT22;293;53.888;11.464;2022-10-03T19:22:01;14.20;99.90
612;DHT22;293;53.888;11.464;2022-10-03T19:24:30;14.30;99.90
612;DHT22;293;53.888;11.464;2022-10-03T19:26:59;14.20;99.90
612;DHT22;293;53.888;11.464;2022-10-03T19:29:29;14.20;99.90
612;DHT22;293;53.888;11.464;2022-10-03T19:32:00;14.10;99.90
612;DHT22;293;53.888;11.464;2022-10-03T19:34:34;14.00;99.90
612;DHT22;293;53.888;11.464;2022-10-03T19:37:05;14.00;99.90
612;DHT22;293;53.888;11.464;2022-10-03T19:39:37;13.90;99.90
612;DHT22;293;53.888;11.464;2022-10-03T19:42:20;13.80;99.90
612;DHT22;293;53.888;11.464;2022-10-03T19:44:50;13.80;99.90
612;DHT22;293;53.888;11.464;2022-10-03T19:47:22;13.70;99.90
612;DHT22;293;53.888;11.464;2022-10-03T19:49:58;13.70;99.90
612;DHT22;293;53.888;11.464;2022-10-03T19:52:29;13.70;99.90
612;DHT22;293;53.888;11.464;2022-10-03T19:55:03;13.60;99.90
612;DHT22;293;53.888;11.464;2022-10-03T19:57:42;13.60;99.90
612;DHT22;293;53.888;11.464;2022-10-03T20:00:30;13.60;99.90